sensor_id;sensor_type;location;lat;lon;timestamp;temperature;humidity
28725;DHT22;43472;48.980;9.646;2023-04-02T00:03:08;9.70;99.90
28725;DHT22;43472;48.980;9.646;2023-04-02T00:08:28;9.90;99.90
28725;DHT22;43472;48.980;9.646;2023-04-02T00:13:43;9.90;99.90
28725;DHT22;43472;48.980;9.646;2023-04-02T00:18:49;9.80;99.90
28725;DHT22;43472;48.980;9.646;2023-04-02T00:23:54;9.70;99.90
28725;DHT22;43472;48.980;9.646;2023-04-02T00:28:58;9.70;99.90
28725;DHT22;43472;48.980;9.646;2023-04-02T00:34:02;9.80;99.90
28725;DHT22;43472;48.980;9.646;2023-04-02T00:39:12;9.70;99.90
28725;DHT22;43472;48.980;9.646;2023-04-02T00:44:16;9.80;99.90
28725;DHT22;43472;48.980;9.646;2023-04-02T00:49:35;9.80;99.90
28725;DHT22;43472;48.980;9.646;2023-04-02T00:54:44;9.70;99.90
28725;DHT22;43472;48.980;9.646;2023-04-02T01:15:41;9.70;99.90
28725;DHT22;43472;48.980;9.646;2023-04-02T01:31:46;9.60;99.90
28725;DHT22;43472;48.980;9.646;2023-04-02T01:47:10;9.70;99.90
28725;DHT22;43472;48.980;9.646;2023-04-02T01:52:32;9.60;99.90
28725;DHT22;43472;48.980;9.646;2023-04-02T01:57:36;9.50;99.90
28725;DHT22;43472;48.980;9.646;2023-04-02T02:02:38;9.50;99.90
28725;DHT22;43472;48.980;9.646;2023-04-02T02:07:41;9.50;99.90
28725;DHT22;43472;48.980;9.646;2023-04-02T02:12:44;9.60;99.90
28725;DHT22;43472;48.980;9.646;2023-04-02T02:17:49;9.50;99.90
28725;DHT22;43472;48.980;9.646;2023-04-02T02:22:52;9.50;99.90
28725;DHT22;43472;48.980;9.646;2023-04-02T02:33:29;9.50;99.90
28725;DHT22;43472;48.980;9.646;2023-04-02T02:49:02;9.50;99.90
28725;DHT22;43472;48.980;9.646;2023-04-02T02:54:05;9.40;99.90
28725;DHT22;43472;48.980;9.646;2023-04-02T02:59:09;9.40;99.90
28725;DHT22;43472;48.980;9.646;2023-04-02T03:04:13;9.50;99.90
28725;DHT22;43472;48.980;9.646;2023-04-02T03:09:48;9.50;99.90
28725;DHT22;43472;48.980;9.646;2023-04-02T03:25:38;9.50;99.90
28725;DHT22;43472;48.980;9.646;2023-04-02T03:30:55;9.50;99.90
28725;DHT22;43472;48.980;9.646;2023-04-02T03:41:32;9.50;99.90
28725;DHT22;43472;48.980;9.646;2023-04-02T03:46:43;9.50;99.90
28725;DHT22;43472;48.980;9.646;2023-04-02T03:52:02;9.50;99.90
28725;DHT22;43472;48.980;9.646;2023-04-02T03:57:17;9.50;99.90
28725;DHT22;43472;48.980;9.646;2023-04-02T04:02:36;9.50;99.90
28725;DHT22;43472;48.980;9.646;2023-04-02T04:07:40;9.50;99.90
28725;DHT22;43472;48.980;9.646;2023-04-02T04:12:48;9.60;99.90
28725;DHT22;43472;48.980;9.646;2023-04-02T04:18:01;9.50;99.90
28725;DHT22;43472;48.980;9.646;2023-04-02T04:23:36;9.60;99.90
28725;DHT22;43472;48.980;9.646;2023-04-02T04:29:03;9.50;99.90
28725;DHT22;43472;48.980;9.646;2023-04-02T04:34:20;9.50;99.90
28725;DHT22;43472;48.980;9.646;2023-04-02T04:45:41;9.40;99.90
28725;DHT22;43472;48.980;9.646;2023-04-02T04:55:55;9.40;99.90
28725;DHT22;43472;48.980;9.646;2023-04-02T05:01:32;9.40;99.90
28725;DHT22;43472;48.980;9.646;2023-04-02T05:28:11;9.40;99.90
28725;DHT22;43472;48.980;9.646;2023-04-02T05:33:27;9.40;99.90
28725;DHT22;43472;48.980;9.646;2023-04-02T05:38:32;9.30;99.90
28725;DHT22;43472;48.980;9.646;2023-04-02T05:43:37;9.30;99.90
28725;DHT22;43472;48.980;9.646;2023-04-02T05:48:43;9.40;99.90
28725;DHT22;43472;48.980;9.646;2023-04-02T05:53:59;9.40;99.90
28725;DHT22;43472;48.980;9.646;2023-04-02T06:09:38;9.50;99.90
28725;DHT22;43472;48.980;9.646;2023-04-02T06:14:41;9.60;99.90
28725;DHT22;43472;48.980;9.646;2023-04-02T06:19:44;9.60;99.90
28725;DHT22;43472;48.980;9.646;2023-04-02T06:24:50;9.60;99.90
28725;DHT22;43472;48.980;9.646;2023-04-02T06:29:58;9.60;99.90
28725;DHT22;43472;48.980;9.646;2023-04-02T06:35:02;9.60;99.90
28725;DHT22;43472;48.980;9.646;2023-04-02T06:40:25;9.60;99.90
28725;DHT22;43472;48.980;9.646;2023-04-02T06:45:32;9.70;99.90
28725;DHT22;43472;48.980;9.646;2023-04-02T06:50:43;9.60;99.90
28725;DHT22;43472;48.980;9.646;2023-04-02T06:55:51;9.70;99.90
28725;DHT22;43472;48.980;9.646;2023-04-02T07:00:54;9.70;99.90
28725;DHT22;43472;48.980;9.646;2023-04-02T07:05:58;9.70;99.90
28725;DHT22;43472;48.980;9.646;2023-04-02T07:11:00;9.70;99.90
28725;DHT22;43472;48.980;9.646;2023-04-02T07:16:03;9.80;99.90
28725;DHT22;43472;48.980;9.646;2023-04-02T07:21:05;9.80;99.90
28725;DHT22;43472;48.980;9.646;2023-04-02T07:26:16;9.90;99.90
28725;DHT22;43472;48.980;9.646;2023-04-02T07:31:23;9.90;99.90
28725;DHT22;43472;48.980;9.646;2023-04-02T07:36:28;9.90;99.90
28725;DHT22;43472;48.980;9.646;2023-04-02T07:41:30;10.00;99.90
28725;DHT22;43472;48.980;9.646;2023-04-02T07:46:32;9.80;99.90
28725;DHT22;43472;48.980;9.646;2023-04-02T07:51:34;10.10;99.90
28725;DHT22;43472;48.980;9.646;2023-04-02T07:56:37;10.10;99.90
28725;DHT22;43472;48.980;9.646;2023-04-02T08:01:39;10.20;99.90
28725;DHT22;43472;48.980;9.646;2023-04-02T08:06:43;10.30;99.90
28725;DHT22;43472;48.980;9.646;2023-04-02T08:11:45;10.30;99.90
28725;DHT22;43472;48.980;9.646;2023-04-02T08:16:52;10.50;99.90
28725;DHT22;43472;48.980;9.646;2023-04-02T08:21:55;10.70;99.90
28725;DHT22;43472;48.980;9.646;2023-04-02T08:26:57;10.50;99.90
28725;DHT22;43472;48.980;9.646;2023-04-02T08:31:59;10.60;99.90
28725;DHT22;43472;48.980;9.646;2023-04-02T08:37:01;10.60;99.90
28725;DHT22;43472;48.980;9.646;2023-04-02T08:42:28;10.50;99.90
28725;DHT22;43472;48.980;9.646;2023-04-02T08:47:38;10.60;99.90
28725;DHT22;43472;48.980;9.646;2023-04-02T08:52:41;10.60;99.90
28725;DHT22;43472;48.980;9.646;2023-04-02T09:03:01;10.80;99.90
28725;DHT22;43472;48.980;9.646;2023-04-02T09:08:21;10.80;99.90
28725;DHT22;43472;48.980;9.646;2023-04-02T09:13:29;11.10;99.90
28725;DHT22;43472;48.980;9.646;2023-04-02T09:18:31;11.20;99.90
28725;DHT22;43472;48.980;9.646;2023-04-02T09:23:34;11.10;99.90
28725;DHT22;43472;48.980;9.646;2023-04-02T09:28:37;11.00;99.90
28725;DHT22;43472;48.980;9.646;2023-04-02T09:33:41;10.90;99.90
28725;DHT22;43472;48.980;9.646;2023-04-02T09:38:58;11.50;99.90
28725;DHT22;43472;48.980;9.646;2023-04-02T09:44:21;11.50;99.90
28725;DHT22;43472;48.980;9.646;2023-04-02T09:49:26;11.50;99.90
28725;DHT22;43472;48.980;9.646;2023-04-02T09:54:28;11.60;99.90
28725;DHT22;43472;48.980;9.646;2023-04-02T09:59:30;11.70;99.90
28725;DHT22;43472;48.980;9.646;2023-04-02T10:04:40;11.30;99.90
28725;DHT22;43472;48.980;9.646;2023-04-02T10:10:00;10.90;99.90
28725;DHT22;43472;48.980;9.646;2023-04-02T10:15:03;11.20;99.90
28725;DHT22;43472;48.980;9.646;2023-04-02T10:20:21;11.30;99.90
28725;DHT22;43472;48.980;9.646;2023-04-02T10:25:27;11.20;99.90
28725;DHT22;43472;48.980;9.646;2023-04-02T10:31:07;11.30;99.90
28725;DHT22;43472;48.980;9.646;2023-04-02T10:37:35;11.30;99.90
28725;DHT22;43472;48.980;9.646;2023-04-02T10:42:09;11.70;99.90
28725;DHT22;43472;48.980;9.646;2023-04-02T10:47:27;11.60;99.90
28725;DHT22;43472;48.980;9.646;2023-04-02T10:52:44;11.60;99.90
28725;DHT22;43472;48.980;9.646;2023-04-02T10:57:47;11.60;99.90
28725;DHT22;43472;48.980;9.646;2023-04-02T11:08:11;11.50;99.90
28725;DHT22;43472;48.980;9.646;2023-04-02T11:18:29;11.60;99.90
28725;DHT22;43472;48.980;9.646;2023-04-02T11:23:55;11.80;99.90
28725;DHT22;43472;48.980;9.646;2023-04-02T11:29:09;9.50;99.90
28725;DHT22;43472;48.980;9.646;2023-04-02T11:39:48;11.90;99.90
28725;DHT22;43472;48.980;9.646;2023-04-02T11:44:57;11.80;99.90
28725;DHT22;43472;48.980;9.646;2023-04-02T11:50:01;11.80;99.90
28725;DHT22;43472;48.980;9.646;2023-04-02T12:05:34;11.50;99.90
28725;DHT22;43472;48.980;9.646;2023-04-02T12:10:57;11.80;99.90
28725;DHT22;43472;48.980;9.646;2023-04-02T12:16:00;12.00;99.90
28725;DHT22;43472;48.980;9.646;2023-04-02T12:21:03;11.90;99.90
28725;DHT22;43472;48.980;9.646;2023-04-02T12:26:11;11.20;99.90
28725;DHT22;43472;48.980;9.646;2023-04-02T12:31:25;11.30;99.90
28725;DHT22;43472;48.980;9.646;2023-04-02T12:36:28;11.20;99.90
28725;DHT22;43472;48.980;9.646;2023-04-02T12:41:31;10.90;99.90
28725;DHT22;43472;48.980;9.646;2023-04-02T12:46:34;11.10;99.90
28725;DHT22;43472;48.980;9.646;2023-04-02T12:51:36;11.20;99.90
28725;DHT22;43472;48.980;9.646;2023-04-02T12:56:38;11.10;99.90
28725;DHT22;43472;48.980;9.646;2023-04-02T13:01:54;11.00;99.90
28725;DHT22;43472;48.980;9.646;2023-04-02T13:06:56;10.70;99.90
28725;DHT22;43472;48.980;9.646;2023-04-02T13:11:59;10.70;99.90
28725;DHT22;43472;48.980;9.646;2023-04-02T13:17:01;10.70;99.90
28725;DHT22;43472;48.980;9.646;2023-04-02T13:22:28;10.80;99.90
28725;DHT22;43472;48.980;9.646;2023-04-02T13:27:30;10.80;99.90
28725;DHT22;43472;48.980;9.646;2023-04-02T13:32:32;11.10;99.90
28725;DHT22;43472;48.980;9.646;2023-04-02T13:37:34;10.90;99.90
28725;DHT22;43472;48.980;9.646;2023-04-02T13:42:36;10.80;99.90
28725;DHT22;43472;48.980;9.646;2023-04-02T13:47:38;10.70;99.90
28725;DHT22;43472;48.980;9.646;2023-04-02T13:52:41;10.70;99.90
28725;DHT22;43472;48.980;9.646;2023-04-02T13:57:43;10.50;99.90
28725;DHT22;43472;48.980;9.646;2023-04-02T14:02:50;10.40;99.90
28725;DHT22;43472;48.980;9.646;2023-04-02T14:13:19;10.10;99.90
28725;DHT22;43472;48.980;9.646;2023-04-02T14:24:22;10.10;99.90
28725;DHT22;43472;48.980;9.646;2023-04-02T14:29:47;10.20;99.90
28725;DHT22;43472;48.980;9.646;2023-04-02T14:40:31;10.10;99.90
28725;DHT22;43472;48.980;9.646;2023-04-02T14:45:57;10.10;99.90
28725;DHT22;43472;48.980;9.646;2023-04-02T14:51:04;10.10;99.90
28725;DHT22;43472;48.980;9.646;2023-04-02T14:56:09;9.70;99.90
28725;DHT22;43472;48.980;9.646;2023-04-02T15:01:13;9.80;99.90
28725;DHT22;43472;48.980;9.646;2023-04-02T15:06:22;9.80;99.90
28725;DHT22;43472;48.980;9.646;2023-04-02T15:11:26;9.90;99.90
28725;DHT22;43472;48.980;9.646;2023-04-02T15:16:30;9.90;99.90
28725;DHT22;43472;48.980;9.646;2023-04-02T15:37:56;9.60;99.90
28725;DHT22;43472;48.980;9.646;2023-04-02T15:43:26;9.20;99.90
28725;DHT22;43472;48.980;9.646;2023-04-02T15:48:34;9.10;99.90
28725;DHT22;43472;48.980;9.646;2023-04-02T16:14:30;8.90;99.90
28725;DHT22;43472;48.980;9.646;2023-04-02T16:19:34;9.20;99.90
28725;DHT22;43472;48.980;9.646;2023-04-02T16:24:39;8.90;99.90
28725;DHT22;43472;48.980;9.646;2023-04-02T16:41:41;8.80;99.90
28725;DHT22;43472;48.980;9.646;2023-04-02T17:03:20;8.30;99.90
28725;DHT22;43472;48.980;9.646;2023-04-02T17:08:29;8.30;99.90
28725;DHT22;43472;48.980;9.646;2023-04-02T17:13:42;8.20;99.90
28725;DHT22;43472;48.980;9.646;2023-04-02T17:18:47;8.10;99.90
28725;DHT22;43472;48.980;9.646;2023-04-02T17:29:18;8.10;99.90
28725;DHT22;43472;48.980;9.646;2023-04-02T17:34:20;7.70;99.90
28725;DHT22;43472;48.980;9.646;2023-04-02T17:50:14;7.50;99.90
28725;DHT22;43472;48.980;9.646;2023-04-02T17:55:28;7.50;99.90
28725;DHT22;43472;48.980;9.646;2023-04-02T18:00:44;7.30;99.90
28725;DHT22;43472;48.980;9.646;2023-04-02T18:05:53;7.30;99.90
28725;DHT22;43472;48.980;9.646;2023-04-02T18:53:27;6.80;99.90
28725;DHT22;43472;48.980;9.646;2023-04-02T18:58:41;7.10;99.90
28725;DHT22;43472;48.980;9.646;2023-04-02T19:03:51;6.70;99.90
28725;DHT22;43472;48.980;9.646;2023-04-02T19:08:58;6.80;99.90
28725;DHT22;43472;48.980;9.646;2023-04-02T19:14:12;6.90;99.90
28725;DHT22;43472;48.980;9.646;2023-04-02T19:19:22;6.60;99.90
28725;DHT22;43472;48.980;9.646;2023-04-02T19:34:47;6.60;99.90
28725;DHT22;43472;48.980;9.646;2023-04-02T19:39:58;6.80;99.90
28725;DHT22;43472;48.980;9.646;2023-04-02T19:45:04;6.60;99.90
28725;DHT22;43472;48.980;9.646;2023-04-02T19:50:07;6.70;99.90
28725;DHT22;43472;48.980;9.646;2023-04-02T19:55:09;6.50;99.90
28725;DHT22;43472;48.980;9.646;2023-04-02T20:00:13;6.60;99.90
28725;DHT22;43472;48.980;9.646;2023-04-02T20:05:15;6.50;99.90
28725;DHT22;43472;48.980;9.646;2023-04-02T20:10:18;6.50;99.90
28725;DHT22;43472;48.980;9.646;2023-04-02T20:15:22;6.40;99.90
28725;DHT22;43472;48.980;9.646;2023-04-02T20:20:24;6.40;99.90
28725;DHT22;43472;48.980;9.646;2023-04-02T20:25:26;6.50;99.90
28725;DHT22;43472;48.980;9.646;2023-04-02T20:30:29;6.50;99.90
28725;DHT22;43472;48.980;9.646;2023-04-02T20:35:33;6.30;99.90
28725;DHT22;43472;48.980;9.646;2023-04-02T20:40:38;6.30;99.90
28725;DHT22;43472;48.980;9.646;2023-04-02T20:45:40;6.60;99.90
28725;DHT22;43472;48.980;9.646;2023-04-02T20:50:41;6.40;99.90
28725;DHT22;43472;48.980;9.646;2023-04-02T20:55:45;6.30;99.90
28725;DHT22;43472;48.980;9.646;2023-04-02T21:00:47;6.20;99.90
28725;DHT22;43472;48.980;9.646;2023-04-02T21:05:49;6.30;99.90
28725;DHT22;43472;48.980;9.646;2023-04-02T21:10:51;6.20;99.90
28725;DHT22;43472;48.980;9.646;2023-04-02T21:15:53;6.20;99.90
28725;DHT22;43472;48.980;9.646;2023-04-02T21:26:03;6.20;99.90
28725;DHT22;43472;48.980;9.646;2023-04-02T21:31:15;6.20;99.90
28725;DHT22;43472;48.980;9.646;2023-04-02T21:36:19;6.30;99.90
28725;DHT22;43472;48.980;9.646;2023-04-02T21:41:29;6.30;99.90
28725;DHT22;43472;48.980;9.646;2023-04-02T21:46:38;6.40;99.90
28725;DHT22;43472;48.980;9.646;2023-04-02T21:51:41;6.40;99.90
28725;DHT22;43472;48.980;9.646;2023-04-02T21:56:44;6.30;99.90
28725;DHT22;43472;48.980;9.646;2023-04-02T22:01:48;6.40;99.90
28725;DHT22;43472;48.980;9.646;2023-04-02T22:06:53;6.30;99.90
28725;DHT22;43472;48.980;9.646;2023-04-02T22:11:56;6.30;99.90
28725;DHT22;43472;48.980;9.646;2023-04-02T22:17:02;6.20;99.90
28725;DHT22;43472;48.980;9.646;2023-04-02T22:22:04;6.20;99.90
28725;DHT22;43472;48.980;9.646;2023-04-02T22:27:06;6.30;99.90
28725;DHT22;43472;48.980;9.646;2023-04-02T22:32:08;6.30;99.90
28725;DHT22;43472;48.980;9.646;2023-04-02T22:37:10;6.50;99.90
28725;DHT22;43472;48.980;9.646;2023-04-02T22:42:12;6.50;99.90
28725;DHT22;43472;48.980;9.646;2023-04-02T22:47:14;6.20;99.90
28725;DHT22;43472;48.980;9.646;2023-04-02T22:52:16;6.40;99.90
28725;DHT22;43472;48.980;9.646;2023-04-02T22:57:18;6.30;99.90
28725;DHT22;43472;48.980;9.646;2023-04-02T23:02:20;6.40;99.90
28725;DHT22;43472;48.980;9.646;2023-04-02T23:07:22;6.20;99.90
28725;DHT22;43472;48.980;9.646;2023-04-02T23:12:24;6.20;99.90
28725;DHT22;43472;48.980;9.646;2023-04-02T23:17:25;6.10;99.90
28725;DHT22;43472;48.980;9.646;2023-04-02T23:22:27;6.30;99.90
28725;DHT22;43472;48.980;9.646;2023-04-02T23:27:30;6.10;99.90
28725;DHT22;43472;48.980;9.646;2023-04-02T23:32:32;6.20;99.90
28725;DHT22;43472;48.980;9.646;2023-04-02T23:37:34;6.10;99.90
28725;DHT22;43472;48.980;9.646;2023-04-02T23:42:36;6.30;99.90
28725;DHT22;43472;48.980;9.646;2023-04-02T23:47:38;6.10;99.90
28725;DHT22;43472;48.980;9.646;2023-04-02T23:52:40;6.30;99.90
28725;DHT22;43472;48.980;9.646;2023-04-02T23:57:42;6.10;99.90
